Time;durP1;ratioP1;P1;durP2;ratioP2;P2;SDS_P1;SDS_P2;PMS_P1;PMS_P2;Temp;Humidity;BMP_temperature;BMP_pressure;BME280_temperature;BME280_humidity;BME280_pressure;Samples;Min_cycle;Max_cycle;Signal;HPM_P1;HPM_P2
2021/06/30 00:01:57;;;;;;;6.17;5.63;;;20.30;99.90;;;;;;4915601;29;20391;-77
2021/06/30 00:04:23;;;;;;;6.60;5.40;;;20.30;99.90;;;;;;4921153;28;20419;-76
2021/06/30 00:06:48;;;;;;;5.90;5.40;;;20.30;99.90;;;;;;4899205;29;20443;-75
2021/06/30 00:09:15;;;;;;;6.30;5.60;;;20.30;99.90;;;;;;4914481;29;20454;-76
2021/06/30 00:11:41;;;;;;;5.80;5.30;;;20.30;99.90;;;;;;4900822;28;20404;-75
2021/06/30 00:14:07;;;;;;;6.67;6.07;;;20.40;99.90;;;;;;4939586;28;20413;-75
2021/06/30 00:16:33;;;;;;;5.95;4.68;;;20.40;99.90;;;;;;4888990;29;20439;-75
2021/06/30 00:19:02;;;;;;;5.45;5.05;;;20.40;99.90;;;;;;4914982;28;20470;-76
2021/06/30 00:21:27;;;;;;;5.37;4.90;;;20.40;99.90;;;;;;4902588;28;20897;-75
2021/06/30 00:23:53;;;;;;;5.80;5.15;;;20.40;99.90;;;;;;4932502;29;20421;-76
2021/06/30 00:26:19;;;;;;;6.05;5.57;;;20.40;99.90;;;;;;4900331;29;20418;-76
2021/06/30 00:28:45;;;;;;;5.55;5.13;;;20.30;99.90;;;;;;4893447;28;20402;-76
2021/06/30 00:31:11;;;;;;;5.30;4.80;;;20.40;99.90;;;;;;4882425;29;20932;-76
2021/06/30 00:33:37;;;;;;;5.57;4.97;;;20.30;99.90;;;;;;4915285;29;20401;-75
2021/06/30 00:36:03;;;;;;;5.72;5.20;;;20.30;99.90;;;;;;4898619;29;20405;-75
2021/06/30 00:38:29;;;;;;;6.20;5.63;;;20.30;99.90;;;;;;4899187;28;20410;-76
2021/06/30 00:40:54;;;;;;;6.05;5.55;;;20.30;99.90;;;;;;4916383;29;20445;-76
2021/06/30 00:43:20;;;;;;;6.77;6.17;;;20.30;99.90;;;;;;4905858;28;20404;-76
2021/06/30 00:45:48;;;;;;;6.40;5.82;;;20.20;99.90;;;;;;4918957;29;20414;-75
2021/06/30 00:48:14;;;;;;;4.37;3.97;;;20.10;99.90;;;;;;4899033;29;21061;-75
2021/06/30 00:50:39;;;;;;;5.25;4.85;;;20.10;99.90;;;;;;4914599;29;20481;-75
2021/06/30 00:53:05;;;;;;;6.27;5.67;;;20.10;99.90;;;;;;4899314;29;20417;-74
2021/06/30 00:55:31;;;;;;;5.10;4.70;;;20.10;99.90;;;;;;4912870;28;20433;-75
2021/06/30 00:57:58;;;;;;;5.40;4.90;;;20.10;99.90;;;;;;4898742;29;20409;-75
2021/06/30 01:00:23;;;;;;;5.20;4.80;;;20.10;99.90;;;;;;4930051;28;20541;-75
2021/06/30 01:02:49;;;;;;;5.35;4.85;;;20.10;99.90;;;;;;4914615;29;20916;-74
2021/06/30 01:05:16;;;;;;;5.83;5.23;;;20.10;99.90;;;;;;4913997;28;20397;-73
2021/06/30 01:07:43;;;;;;;5.80;5.30;;;20.20;99.90;;;;;;4947021;28;20433;-73
2021/06/30 01:10:09;;;;;;;5.55;5.03;;;20.20;99.90;;;;;;4914415;29;20414;-76
2021/06/30 01:12:34;;;;;;;5.65;5.15;;;20.20;99.90;;;;;;4926694;28;20798;-74
2021/06/30 01:15:05;;;;;;;5.53;4.97;;;20.20;99.90;;;;;;4924851;29;20469;-72
2021/06/30 01:17:30;;;;;;;5.53;5.03;;;20.20;99.90;;;;;;4923880;29;20485;-75
2021/06/30 01:19:56;;;;;;;6.05;5.45;;;20.30;99.90;;;;;;4917353;29;20504;-74
2021/06/30 01:22:23;;;;;;;6.87;6.23;;;20.30;99.90;;;;;;4908649;28;20448;-74
2021/06/30 01:24:50;;;;;;;5.85;5.25;;;20.20;99.90;;;;;;4929692;28;20437;-75
2021/06/30 01:27:18;;;;;;;6.45;5.85;;;20.20;99.90;;;;;;4882734;28;20394;-74
2021/06/30 01:29:44;;;;;;;6.00;5.45;;;20.20;99.90;;;;;;4914929;29;20424;-74
2021/06/30 01:32:09;;;;;;;6.25;5.65;;;20.10;99.90;;;;;;4913034;28;20990;-74
2021/06/30 01:34:35;;;;;;;5.90;5.30;;;20.10;99.90;;;;;;4914601;29;20414;-76
2021/06/30 01:37:01;;;;;;;5.53;5.00;;;20.10;99.90;;;;;;4912660;29;20471;-75
2021/06/30 01:39:26;;;;;;;5.15;4.75;;;20.10;99.90;;;;;;4896500;28;20414;-75
2021/06/30 01:41:52;;;;;;;6.10;5.50;;;20.10;99.90;;;;;;4914316;29;20401;-75
2021/06/30 01:44:18;;;;;;;6.03;5.53;;;20.10;99.90;;;;;;4901556;28;20803;-76
2021/06/30 01:46:44;;;;;;;5.75;5.20;;;20.10;99.90;;;;;;4929119;28;20398;-76
2021/06/30 01:49:09;;;;;;;5.63;5.13;;;20.20;99.90;;;;;;4930050;29;20398;-74
2021/06/30 01:51:35;;;;;;;6.05;5.30;;;20.20;99.90;;;;;;4898376;28;20497;-76
2021/06/30 01:54:02;;;;;;;5.27;4.80;;;20.20;99.90;;;;;;4914387;29;20413;-75
2021/06/30 01:56:28;;;;;;;5.53;5.03;;;20.20;99.90;;;;;;4907307;28;20417;-74
2021/06/30 01:58:59;;;;;;;5.70;5.20;;;20.20;99.90;;;;;;4914271;28;20442;-75
2021/06/30 02:01:25;;;;;;;6.70;5.47;;;20.20;99.90;;;;;;4898095;29;20397;-74
2021/06/30 02:03:50;;;;;;;5.82;5.32;;;20.10;99.90;;;;;;4916912;28;20430;-73
2021/06/30 02:06:16;;;;;;;6.10;5.53;;;20.20;99.90;;;;;;4930371;28;20464;-76
2021/06/30 02:08:42;;;;;;;5.07;4.65;;;20.20;99.90;;;;;;4913679;29;20414;-77
2021/06/30 02:11:07;;;;;;;6.40;5.80;;;20.20;99.90;;;;;;4913756;28;20428;-78
2021/06/30 02:13:33;;;;;;;5.47;5.03;;;20.20;99.90;;;;;;4896226;28;20811;-78
2021/06/30 02:15:59;;;;;;;6.25;5.75;;;20.20;99.90;;;;;;4905052;29;20465;-79
2021/06/30 02:18:24;;;;;;;6.00;5.50;;;20.30;99.90;;;;;;4895745;28;20448;-76
2021/06/30 02:20:50;;;;;;;5.87;5.37;;;20.20;99.90;;;;;;4896941;28;20469;-77
2021/06/30 02:23:16;;;;;;;5.97;5.47;;;20.20;99.90;;;;;;4913609;29;20385;-78
2021/06/30 02:25:42;;;;;;;6.00;5.40;;;20.20;99.90;;;;;;4878116;29;20933;-79
2021/06/30 02:28:07;;;;;;;6.68;5.72;;;20.20;99.90;;;;;;4925767;29;20967;-77
2021/06/30 02:30:33;;;;;;;7.33;6.70;;;20.20;99.90;;;;;;4881324;28;20385;-76
2021/06/30 02:33:01;;;;;;;6.50;5.90;;;20.20;99.90;;;;;;4934928;28;20456;-76
2021/06/30 02:35:27;;;;;;;6.70;6.00;;;20.10;99.90;;;;;;4918187;29;20816;-76
2021/06/30 02:37:53;;;;;;;6.68;6.07;;;20.10;99.90;;;;;;4912991;28;20410;-76
2021/06/30 02:40:19;;;;;;;6.95;6.35;;;20.10;99.90;;;;;;4901548;28;20456;-75
2021/06/30 02:42:45;;;;;;;6.75;6.15;;;20.00;99.90;;;;;;4894228;28;20400;-76
2021/06/30 02:45:12;;;;;;;7.53;6.77;;;20.00;99.90;;;;;;4922572;29;20981;-75
2021/06/30 02:47:39;;;;;;;7.63;6.90;;;20.10;99.90;;;;;;4897739;29;20960;-76
2021/06/30 02:50:05;;;;;;;7.53;6.82;;;20.10;99.90;;;;;;4914798;29;20477;-76
2021/06/30 02:52:31;;;;;;;6.73;6.03;;;20.00;99.90;;;;;;4917082;28;20401;-77
2021/06/30 02:54:57;;;;;;;6.88;6.15;;;20.10;99.90;;;;;;4917942;29;20410;-76
2021/06/30 02:57:22;;;;;;;7.13;6.43;;;20.00;99.90;;;;;;4916024;29;20492;-76
2021/06/30 09:20:14;;;;;;;2.20;2.05;;;18.50;99.90;;;;;;5039762;27;20406;-81
2021/06/30 09:22:48;;;;;;;2.00;1.90;;;18.40;99.90;;;;;;5020340;28;20411;-75
2021/06/30 09:25:30;;;;;;;1.95;1.85;;;18.50;99.90;;;;;;5020304;28;20462;-77
2021/06/30 09:27:55;;;;;;;2.08;1.98;;;18.50;99.90;;;;;;4998391;28;20453;-77
2021/06/30 09:30:22;;;;;;;1.80;1.70;;;18.60;99.90;;;;;;4988086;28;20441;-75
2021/06/30 09:32:54;;;;;;;1.70;1.60;;;18.70;99.90;;;;;;4969237;28;20758;-75
2021/06/30 09:35:25;;;;;;;1.90;1.80;;;18.70;99.90;;;;;;5014017;28;20425;-76
2021/06/30 09:37:52;;;;;;;2.35;1.90;;;18.90;99.90;;;;;;4997686;28;20406;-76
2021/06/30 09:40:18;;;;;;;2.28;2.08;;;19.00;99.90;;;;;;5001115;28;20414;-76
2021/06/30 09:42:44;;;;;;;2.65;2.33;;;19.10;99.90;;;;;;4985709;28;20943;-76
2021/06/30 09:45:11;;;;;;;2.00;1.90;;;19.10;99.90;;;;;;4965283;28;20393;-76
2021/06/30 09:47:45;;;;;;;2.42;1.98;;;19.20;99.90;;;;;;5005294;28;20471;-75
2021/06/30 09:50:11;;;;;;;1.95;1.85;;;19.20;99.90;;;;;;4993934;28;20436;-75
2021/06/30 09:52:41;;;;;;;1.73;1.63;;;19.20;99.90;;;;;;4994965;28;21053;-75
2021/06/30 09:55:27;;;;;;;1.97;1.87;;;19.20;99.90;;;;;;4989724;28;20421;-76
2021/06/30 09:57:53;;;;;;;1.73;1.63;;;19.30;99.90;;;;;;5017854;28;20412;-76
2021/06/30 10:00:19;;;;;;;2.40;1.90;;;19.30;99.90;;;;;;4985072;28;20894;-76
2021/06/30 10:02:48;;;;;;;1.90;1.80;;;19.30;99.90;;;;;;4994208;28;20463;-77
2021/06/30 10:05:14;;;;;;;2.00;1.70;;;19.30;99.90;;;;;;4984706;28;21113;-77
2021/06/30 10:07:39;;;;;;;1.80;1.70;;;19.30;99.90;;;;;;4979923;28;20518;-76
2021/06/30 10:10:07;;;;;;;2.60;2.20;;;19.30;99.90;;;;;;5001703;28;20404;-76
2021/06/30 10:12:33;;;;;;;3.17;2.70;;;19.40;99.90;;;;;;4970658;28;20406;-76
2021/06/30 10:15:00;;;;;;;2.00;1.90;;;19.40;99.90;;;;;;4981121;28;20397;-75
2021/06/30 10:17:27;;;;;;;1.88;1.77;;;19.40;99.90;;;;;;5010286;28;20412;-76
2021/06/30 10:19:55;;;;;;;2.00;1.90;;;19.50;99.90;;;;;;4993325;28;20401;-78
2021/06/30 10:22:27;;;;;;;2.20;2.00;;;19.50;99.90;;;;;;4986094;28;20400;-76
2021/06/30 10:24:53;;;;;;;1.90;1.80;;;19.60;99.90;;;;;;4994782;28;20410;-76
2021/06/30 10:27:21;;;;;;;2.22;2.08;;;19.60;99.90;;;;;;4968206;28;20425;-76
2021/06/30 10:30:00;;;;;;;2.50;2.30;;;19.60;99.90;;;;;;4961828;28;20417;-76
2021/06/30 10:32:28;;;;;;;2.57;2.37;;;19.60;99.90;;;;;;4964016;28;20480;-77
2021/06/30 10:34:56;;;;;;;2.55;2.35;;;19.60;99.90;;;;;;4971004;28;20469;-78
2021/06/30 10:37:27;;;;;;;3.05;2.85;;;19.60;99.90;;;;;;4967468;28;20472;-78
2021/06/30 10:39:58;;;;;;;2.53;2.33;;;19.60;99.90;;;;;;4990824;28;20425;-76
2021/06/30 10:42:36;;;;;;;2.53;2.33;;;19.70;99.90;;;;;;4991495;28;20902;-76
2021/06/30 10:45:17;;;;;;;2.90;2.70;;;19.70;99.90;;;;;;4988207;28;20488;-75
2021/06/30 10:48:01;;;;;;;2.60;2.40;;;19.80;99.90;;;;;;4965122;28;20438;-76
2021/06/30 10:50:30;;;;;;;2.50;2.30;;;19.80;99.90;;;;;;4985609;28;20416;-76
2021/06/30 10:53:12;;;;;;;2.70;2.50;;;20.00;99.90;;;;;;4946973;28;20468;-76
2021/06/30 10:55:39;;;;;;;2.30;2.10;;;20.00;99.90;;;;;;4971349;28;21147;-76
2021/06/30 10:58:11;;;;;;;2.40;2.20;;;20.00;99.90;;;;;;4965979;28;20414;-76
2021/06/30 11:00:58;;;;;;;2.30;2.20;;;20.00;99.90;;;;;;4995840;28;20400;-76
2021/06/30 11:03:49;;;;;;;2.17;2.08;;;20.00;99.90;;;;;;4989818;28;20492;-76
2021/06/30 11:06:30;;;;;;;2.47;2.30;;;20.10;99.90;;;;;;4970038;28;20407;-77
2021/06/30 11:09:09;;;;;;;2.53;2.33;;;20.20;99.90;;;;;;4971976;28;20430;-76
2021/06/30 11:11:35;;;;;;;2.00;1.90;;;20.30;99.90;;;;;;4978278;28;20403;-77
2021/06/30 11:14:10;;;;;;;2.10;1.90;;;20.40;99.90;;;;;;5013361;28;20395;-77
2021/06/30 11:16:43;;;;;;;1.80;1.70;;;20.40;99.90;;;;;;4985283;28;20493;-76
2021/06/30 11:19:14;;;;;;;1.97;1.87;;;20.30;99.90;;;;;;4975865;28;20405;-76
2021/06/30 11:21:52;;;;;;;1.75;1.65;;;20.40;99.90;;;;;;4974447;28;20407;-76
2021/06/30 11:24:38;;;;;;;1.60;1.50;;;20.30;99.90;;;;;;4981742;28;20410;-77
2021/06/30 11:27:07;;;;;;;1.33;1.30;;;20.20;99.90;;;;;;5002318;28;20922;-77
2021/06/30 11:29:45;;;;;;;1.20;1.20;;;20.10;99.90;;;;;;5000743;28;20440;-76
2021/06/30 11:32:38;;;;;;;1.77;1.67;;;20.10;99.90;;;;;;5024949;28;20402;-77
2021/06/30 11:35:09;;;;;;;1.48;1.38;;;20.40;99.90;;;;;;4988690;28;20469;-77
2021/06/30 11:37:35;;;;;;;1.10;1.10;;;20.30;99.90;;;;;;4985345;28;20784;-77
2021/06/30 11:40:07;;;;;;;1.05;1.05;;;20.30;99.90;;;;;;4987280;28;20418;-76
2021/06/30 11:42:38;;;;;;;1.00;1.00;;;20.10;99.90;;;;;;4954644;28;20474;-76
2021/06/30 11:45:27;;;;;;;0.98;0.98;;;20.00;99.90;;;;;;4978676;28;20831;-76
2021/06/30 11:47:54;;;;;;;1.00;1.00;;;20.10;99.90;;;;;;4951954;28;20395;-76
2021/06/30 11:50:29;;;;;;;0.80;0.80;;;20.30;99.90;;;;;;4985259;28;21281;-76
2021/06/30 11:52:55;;;;;;;1.63;1.00;;;20.50;99.90;;;;;;4986514;28;20975;-77
2021/06/30 11:55:21;;;;;;;1.00;1.00;;;20.60;99.90;;;;;;4951162;28;20416;-77
2021/06/30 11:58:01;;;;;;;0.90;0.90;;;20.60;99.90;;;;;;4966728;28;20499;-75
2021/06/30 12:00:28;;;;;;;0.80;0.80;;;20.80;99.90;;;;;;4971280;28;20422;-76
2021/06/30 12:02:55;;;;;;;0.80;0.80;;;20.80;99.90;;;;;;4947336;28;20406;-76
2021/06/30 12:05:23;;;;;;;0.90;0.90;;;20.80;99.90;;;;;;4983854;28;20388;-77
2021/06/30 12:07:49;;;;;;;0.90;0.90;;;21.00;99.90;;;;;;4953355;28;20390;-76
2021/06/30 12:10:15;;;;;;;0.70;0.70;;;21.00;99.90;;;;;;4970737;28;20818;-76
2021/06/30 12:12:41;;;;;;;1.00;0.70;;;21.10;99.90;;;;;;4957658;28;20393;-75
2021/06/30 12:15:08;;;;;;;0.70;0.70;;;21.10;99.90;;;;;;4989286;28;20395;-75
2021/06/30 12:17:34;;;;;;;0.70;0.70;;;21.30;99.90;;;;;;4977222;28;20404;-75
2021/06/30 12:20:01;;;;;;;0.70;0.70;;;21.50;99.90;;;;;;5018756;28;20484;-76
2021/06/30 12:22:37;;;;;;;0.80;0.80;;;21.70;99.90;;;;;;5005661;28;20403;-77
2021/06/30 12:25:11;;;;;;;0.70;0.70;;;21.80;99.90;;;;;;5007748;28;20511;-76
2021/06/30 12:27:43;;;;;;;0.93;0.82;;;21.80;99.90;;;;;;4993259;28;21008;-76
2021/06/30 12:30:12;;;;;;;1.00;0.80;;;21.90;99.90;;;;;;4978143;28;20423;-76
2021/06/30 12:32:45;;;;;;;0.80;0.60;;;22.10;99.90;;;;;;5003442;28;20417;-77
2021/06/30 12:35:11;;;;;;;0.70;0.70;;;22.10;99.90;;;;;;4996858;28;20492;-78
2021/06/30 12:37:37;;;;;;;1.00;0.90;;;22.00;99.90;;;;;;4992121;28;20621;-77
2021/06/30 12:40:07;;;;;;;1.00;0.90;;;21.90;99.90;;;;;;4988233;28;20417;-78
2021/06/30 12:43:03;;;;;;;0.43;0.43;;;22.00;99.90;;;;;;5004040;28;20419;-78
2021/06/30 12:45:35;;;;;;;1.17;1.08;;;22.10;99.90;;;;;;4990048;28;20505;-78
2021/06/30 12:48:30;;;;;;;0.90;0.90;;;22.20;99.90;;;;;;4991673;28;20401;-77
2021/06/30 12:52:05;;;;;;;0.70;0.70;;;22.50;99.90;;;;;;4996063;28;20913;-79
2021/06/30 12:55:00;;;;;;;3.85;1.00;;;22.60;99.90;;;;;;5004073;28;20415;-79
2021/06/30 12:57:26;;;;;;;0.70;0.70;;;23.00;99.90;;;;;;5002748;28;20404;-78
2021/06/30 13:00:12;;;;;;;1.67;0.77;;;23.50;99.90;;;;;;4988067;28;20785;-79
2021/06/30 13:02:38;;;;;;;0.70;0.70;;;23.70;99.90;;;;;;4983172;28;20403;-79
2021/06/30 13:05:20;;;;;;;0.77;0.77;;;23.70;99.90;;;;;;4999967;28;20397;-79
2021/06/30 13:07:46;;;;;;;0.70;0.70;;;23.90;99.90;;;;;;4971478;28;20761;-77
2021/06/30 13:10:15;;;;;;;0.85;0.85;;;24.10;99.90;;;;;;4971649;28;20407;-78
2021/06/30 13:12:41;;;;;;;0.80;0.80;;;24.60;99.90;;;;;;4964877;28;20480;-78
2021/06/30 13:15:39;;;;;;;0.82;0.80;;;24.70;99.90;;;;;;4985848;28;21003;-79
2021/06/30 13:18:17;;;;;;;0.80;0.80;;;24.60;99.90;;;;;;4950214;28;20412;-78
2021/06/30 13:20:43;;;;;;;0.80;0.80;;;24.50;99.90;;;;;;4971869;28;20405;-79
2021/06/30 13:23:09;;;;;;;0.90;0.90;;;24.50;99.90;;;;;;4987637;28;20964;-78
2021/06/30 13:25:50;;;;;;;0.90;0.90;;;24.30;99.90;;;;;;4988823;28;20389;-79
2021/06/30 13:28:29;;;;;;;0.80;0.80;;;24.20;99.90;;;;;;5004521;28;20513;-78
2021/06/30 13:36:29;;;;;;;0.88;0.88;;;24.10;99.90;;;;;;5009845;28;20952;-79
2021/06/30 13:38:55;;;;;;;1.02;1.02;;;24.10;99.90;;;;;;5014765;28;20417;-79
2021/06/30 13:41:21;;;;;;;1.00;1.00;;;24.00;99.90;;;;;;5007281;28;20403;-78
2021/06/30 13:43:48;;;;;;;1.10;1.10;;;23.80;99.90;;;;;;5013142;28;20470;-79
2021/06/30 13:46:15;;;;;;;2.42;1.88;;;23.60;99.90;;;;;;4992076;28;20428;-77
2021/06/30 13:48:43;;;;;;;1.50;1.40;;;23.50;99.90;;;;;;4960820;28;20394;-78
2021/06/30 13:51:11;;;;;;;1.40;1.30;;;23.30;99.90;;;;;;4985459;28;20879;-78
2021/06/30 13:53:37;;;;;;;0.83;0.83;;;23.30;99.90;;;;;;5003402;28;20451;-78
2021/06/30 13:56:04;;;;;;;0.90;0.90;;;23.30;99.90;;;;;;4987687;28;20409;-78
2021/06/30 13:58:30;;;;;;;1.20;1.10;;;23.40;99.90;;;;;;4987722;28;20405;-78
2021/06/30 14:00:57;;;;;;;0.80;0.80;;;23.60;99.90;;;;;;4987151;28;20446;-78
2021/06/30 14:03:22;;;;;;;0.88;0.80;;;23.60;99.90;;;;;;4984279;28;20461;-79
2021/06/30 14:05:48;;;;;;;0.80;0.80;;;23.30;99.90;;;;;;4984284;28;20420;-77
2021/06/30 14:08:14;;;;;;;0.60;0.60;;;23.40;99.90;;;;;;4980632;28;20454;-78
2021/06/30 14:10:41;;;;;;;0.65;0.65;;;23.80;99.90;;;;;;5007339;28;20397;-77
2021/06/30 14:13:06;;;;;;;2.60;2.40;;;24.30;99.90;;;;;;5006210;28;20501;-76
2021/06/30 14:15:32;;;;;;;0.90;0.90;;;24.70;99.90;;;;;;4973537;28;21243;-77
2021/06/30 14:17:58;;;;;;;0.60;0.60;;;24.60;99.90;;;;;;4975748;28;20404;-77
2021/06/30 14:20:24;;;;;;;0.70;0.70;;;25.00;99.90;;;;;;4997050;28;20787;-77
2021/06/30 14:22:50;;;;;;;0.70;0.70;;;25.50;99.90;;;;;;5009880;28;20384;-77
2021/06/30 14:25:16;;;;;;;0.70;0.70;;;25.90;99.90;;;;;;5005573;28;20383;-77
2021/06/30 14:27:43;;;;;;;0.55;0.55;;;25.80;99.90;;;;;;5003970;28;20561;-78
2021/06/30 14:30:10;;;;;;;0.93;0.93;;;25.30;99.90;;;;;;5005526;28;20407;-77
2021/06/30 14:32:36;;;;;;;0.70;0.70;;;25.10;99.90;;;;;;4974067;28;22000;-77
2021/06/30 14:35:02;;;;;;;0.70;0.70;;;25.00;99.90;;;;;;4982399;28;20459;-77
2021/06/30 14:37:29;;;;;;;1.75;1.10;;;25.50;99.90;;;;;;4987451;28;20397;-77
2021/06/30 14:39:59;;;;;;;0.73;0.73;;;26.20;99.90;;;;;;5002980;28;21169;-78
2021/06/30 14:42:25;;;;;;;0.68;0.68;;;26.60;99.90;;;;;;4998540;28;20515;-77
2021/06/30 14:44:50;;;;;;;0.60;0.60;;;26.70;99.90;;;;;;5011929;28;20850;-77
2021/06/30 14:47:16;;;;;;;0.63;0.63;;;26.40;99.90;;;;;;4990692;28;20421;-78
2021/06/30 14:49:42;;;;;;;0.60;0.60;;;26.10;99.90;;;;;;5006722;28;20496;-77
2021/06/30 14:52:08;;;;;;;0.80;0.80;;;26.00;99.90;;;;;;4992326;28;20750;-77
2021/06/30 14:54:34;;;;;;;0.68;0.68;;;26.00;99.90;;;;;;4991987;28;20459;-78
2021/06/30 14:57:00;;;;;;;0.63;0.63;;;26.00;99.90;;;;;;4989354;28;20406;-78
2021/06/30 14:59:26;;;;;;;0.70;0.70;;;25.70;99.90;;;;;;5007227;28;20455;-78
2021/06/30 15:01:52;;;;;;;0.60;0.60;;;25.60;99.90;;;;;;5005595;28;20557;-77
2021/06/30 15:04:18;;;;;;;0.80;0.80;;;25.30;99.90;;;;;;4977714;28;20399;-77
2021/06/30 15:06:44;;;;;;;0.60;0.60;;;25.20;99.90;;;;;;4975414;28;20408;-78
2021/06/30 15:09:09;;;;;;;0.80;0.80;;;25.10;99.90;;;;;;4989828;28;21172;-78
2021/06/30 15:11:35;;;;;;;0.53;0.53;;;25.10;99.90;;;;;;4976670;28;20817;-78
2021/06/30 15:14:02;;;;;;;0.77;0.77;;;25.00;99.90;;;;;;5007145;28;20408;-77
2021/06/30 15:16:31;;;;;;;0.70;0.70;;;24.80;99.90;;;;;;4973744;28;20423;-78
2021/06/30 15:18:57;;;;;;;0.60;0.60;;;24.90;99.90;;;;;;4971395;28;20415;-78
2021/06/30 15:21:22;;;;;;;2.30;1.80;;;24.80;99.90;;;;;;5002172;28;20648;-77
2021/06/30 15:23:48;;;;;;;4.10;3.50;;;24.90;99.90;;;;;;4991337;28;20405;-79
2021/06/30 15:26:14;;;;;;;0.75;0.75;;;24.90;99.90;;;;;;5005876;28;20400;-79
2021/06/30 15:28:40;;;;;;;0.60;0.60;;;24.60;99.90;;;;;;5006785;28;20396;-77
2021/06/30 15:31:05;;;;;;;3.00;0.70;;;24.50;99.90;;;;;;5006183;28;20451;-78
2021/06/30 15:33:32;;;;;;;0.70;0.70;;;24.30;99.90;;;;;;4997911;28;20401;-78
2021/06/30 15:35:58;;;;;;;0.67;0.67;;;24.00;99.90;;;;;;5007233;28;20984;-77
2021/06/30 15:38:23;;;;;;;0.60;0.60;;;24.00;99.90;;;;;;5022607;28;20408;-76
2021/06/30 15:40:49;;;;;;;0.70;0.70;;;23.90;99.90;;;;;;4991585;28;20401;-78
2021/06/30 15:43:18;;;;;;;0.55;0.55;;;23.90;99.90;;;;;;5011450;28;20762;-76
2021/06/30 15:45:44;;;;;;;0.70;0.70;;;23.90;99.90;;;;;;5009915;28;20380;-76
2021/06/30 15:48:10;;;;;;;0.60;0.60;;;23.70;99.90;;;;;;5009411;28;20395;-77
2021/06/30 15:50:36;;;;;;;0.60;0.60;;;23.70;99.90;;;;;;4994825;28;20424;-77
2021/06/30 15:53:02;;;;;;;1.00;1.00;;;23.60;99.90;;;;;;5006685;28;20723;-76
2021/06/30 15:55:28;;;;;;;0.87;0.87;;;23.50;99.90;;;;;;5006958;28;20418;-77
2021/06/30 15:57:55;;;;;;;2.30;0.90;;;23.60;99.90;;;;;;4986412;28;20397;-76
2021/06/30 16:00:21;;;;;;;0.60;0.60;;;23.60;99.90;;;;;;4987689;28;20490;-77
2021/06/30 16:02:46;;;;;;;0.65;0.65;;;23.60;99.90;;;;;;4990295;28;20493;-77
2021/06/30 16:05:13;;;;;;;0.67;0.67;;;23.50;99.90;;;;;;4990215;28;20832;-76
2021/06/30 16:07:38;;;;;;;1.17;0.87;;;23.40;99.90;;;;;;4974601;28;20408;-77
2021/06/30 16:10:06;;;;;;;0.80;0.80;;;23.30;99.90;;;;;;4989194;28;20443;-77
2021/06/30 16:12:31;;;;;;;0.70;0.70;;;23.30;99.90;;;;;;5006446;28;20404;-77
2021/06/30 16:14:57;;;;;;;0.70;0.70;;;23.20;99.90;;;;;;4990392;28;20471;-77
2021/06/30 16:17:22;;;;;;;0.80;0.80;;;23.10;99.90;;;;;;4975911;28;20404;-76
2021/06/30 16:19:48;;;;;;;6.78;0.95;;;23.00;99.90;;;;;;5006174;28;20419;-78
2021/06/30 16:22:14;;;;;;;0.70;0.70;;;22.90;99.90;;;;;;4989404;28;20939;-77
2021/06/30 16:24:40;;;;;;;2.40;2.20;;;22.70;99.90;;;;;;4970150;28;20406;-79
2021/06/30 16:27:06;;;;;;;1.40;1.30;;;22.80;99.90;;;;;;4970387;28;20880;-78
2021/06/30 16:29:33;;;;;;;1.03;0.90;;;22.80;99.90;;;;;;4995031;28;20880;-78
2021/06/30 16:31:58;;;;;;;0.70;0.70;;;22.60;99.90;;;;;;4987824;28;20440;-78
2021/06/30 16:34:24;;;;;;;1.23;1.00;;;22.60;99.90;;;;;;4990056;28;21115;-78
2021/06/30 16:36:50;;;;;;;1.00;0.70;;;22.70;99.90;;;;;;5005824;28;20940;-79
2021/06/30 16:39:15;;;;;;;0.70;0.70;;;22.50;99.90;;;;;;4988873;28;20452;-78
2021/06/30 16:41:41;;;;;;;0.80;0.80;;;22.60;99.90;;;;;;5011113;28;20838;-78
2021/06/30 16:44:08;;;;;;;1.92;0.60;;;22.60;99.90;;;;;;4988773;28;20410;-77
2021/06/30 16:46:33;;;;;;;0.73;0.73;;;22.70;99.90;;;;;;4988290;28;20397;-77
2021/06/30 16:49:00;;;;;;;0.73;0.73;;;22.80;99.90;;;;;;4988303;28;20409;-78
2021/06/30 16:51:25;;;;;;;0.63;0.63;;;22.80;99.90;;;;;;5005375;28;20463;-78
2021/06/30 16:53:51;;;;;;;0.80;0.80;;;22.80;99.90;;;;;;5013691;28;20391;-78
2021/06/30 16:56:17;;;;;;;0.70;0.70;;;22.80;99.90;;;;;;5004667;28;20504;-77
2021/06/30 16:58:43;;;;;;;0.80;0.80;;;22.70;99.90;;;;;;4972539;28;20409;-78
2021/06/30 17:01:09;;;;;;;0.90;0.90;;;22.50;99.90;;;;;;4974153;28;20500;-78
2021/06/30 17:03:34;;;;;;;1.00;1.00;;;22.30;99.90;;;;;;4983155;28;20398;-78
2021/06/30 17:06:00;;;;;;;0.80;0.80;;;22.20;99.90;;;;;;4992361;28;20404;-77
2021/06/30 17:08:26;;;;;;;1.20;0.97;;;22.10;99.90;;;;;;5008592;28;21060;-78
2021/06/30 17:10:54;;;;;;;1.20;1.10;;;22.20;99.90;;;;;;4988111;28;20938;-76
2021/06/30 17:13:19;;;;;;;1.92;1.50;;;22.20;99.90;;;;;;5020666;28;20814;-76
2021/06/30 17:15:45;;;;;;;1.23;1.20;;;22.20;99.90;;;;;;4995839;28;20438;-75
2021/06/30 17:18:11;;;;;;;1.00;1.00;;;22.10;99.90;;;;;;4992212;28;20458;-76
2021/06/30 17:20:36;;;;;;;0.80;0.80;;;21.90;99.90;;;;;;4989821;28;20388;-76
2021/06/30 17:23:02;;;;;;;1.23;1.07;;;21.80;99.90;;;;;;4983659;28;20876;-75
2021/06/30 17:25:28;;;;;;;1.30;1.20;;;21.70;99.90;;;;;;5029165;28;20406;-77
2021/06/30 17:27:54;;;;;;;0.90;0.90;;;21.60;99.90;;;;;;4999821;28;20407;-77
2021/06/30 17:30:22;;;;;;;1.17;1.08;;;21.60;99.90;;;;;;4988009;28;20417;-77
2021/06/30 17:32:53;;;;;;;0.80;0.80;;;21.40;99.90;;;;;;4980742;28;20407;-78
2021/06/30 17:35:19;;;;;;;1.00;1.00;;;21.30;99.90;;;;;;4985706;28;21054;-77
2021/06/30 17:37:45;;;;;;;1.23;1.20;;;21.30;99.90;;;;;;4970828;28;20561;-77
2021/06/30 17:40:11;;;;;;;1.80;1.70;;;21.30;99.90;;;;;;4968812;28;20557;-77
2021/06/30 17:42:37;;;;;;;1.50;1.40;;;21.30;99.90;;;;;;4983818;28;20396;-76
2021/06/30 17:45:06;;;;;;;1.52;1.10;;;21.30;99.90;;;;;;5000560;28;20796;-76
2021/06/30 17:47:32;;;;;;;1.10;1.10;;;21.20;99.90;;;;;;4991816;28;20408;-77
2021/06/30 17:49:58;;;;;;;1.40;1.30;;;21.10;99.90;;;;;;4975754;28;20407;-77
2021/06/30 17:52:23;;;;;;;1.17;1.13;;;21.20;99.90;;;;;;4991749;28;20404;-76
2021/06/30 17:54:50;;;;;;;0.90;0.90;;;21.10;99.90;;;;;;5008856;28;20893;-75
2021/06/30 17:57:19;;;;;;;1.08;1.08;;;21.10;99.90;;;;;;4980137;28;20455;-75
2021/06/30 17:59:45;;;;;;;1.00;1.00;;;21.00;99.90;;;;;;4994715;28;20486;-76
2021/06/30 18:02:10;;;;;;;1.00;1.00;;;20.90;99.90;;;;;;4991938;28;20393;-76
2021/06/30 18:04:36;;;;;;;1.00;1.00;;;20.90;99.90;;;;;;5008918;28;20405;-76
2021/06/30 18:07:02;;;;;;;0.97;0.97;;;20.90;99.90;;;;;;4995827;28;20399;-75
2021/06/30 18:09:27;;;;;;;1.90;1.23;;;20.70;99.90;;;;;;4992106;28;20451;-76
2021/06/30 18:11:53;;;;;;;1.20;1.17;;;20.70;99.90;;;;;;4986187;28;20418;-76
2021/06/30 18:14:19;;;;;;;1.17;1.13;;;20.70;99.90;;;;;;4978102;28;20391;-76
2021/06/30 18:16:44;;;;;;;1.25;1.10;;;20.60;99.90;;;;;;4971965;28;20509;-75
2021/06/30 18:19:10;;;;;;;0.90;0.90;;;20.50;99.90;;;;;;4975313;28;20409;-77
2021/06/30 18:21:36;;;;;;;0.98;0.98;;;20.50;99.90;;;;;;4983728;28;20401;-76
2021/06/30 18:24:02;;;;;;;1.00;1.00;;;20.40;99.90;;;;;;4990346;28;20404;-77
2021/06/30 18:26:28;;;;;;;0.90;0.90;;;20.40;99.90;;;;;;4997168;28;20474;-77
2021/06/30 18:28:53;;;;;;;0.90;0.90;;;20.30;99.90;;;;;;4996652;28;20398;-78
2021/06/30 18:31:19;;;;;;;0.90;0.90;;;20.30;99.90;;;;;;4996436;28;20805;-78
2021/06/30 18:33:45;;;;;;;1.02;1.02;;;20.20;99.90;;;;;;5004284;28;20902;-76
2021/06/30 18:36:11;;;;;;;1.20;1.20;;;20.10;99.90;;;;;;4988717;28;20915;-80
2021/06/30 18:38:37;;;;;;;1.50;1.30;;;20.00;99.90;;;;;;4972530;28;20424;-78
2021/06/30 18:41:05;;;;;;;1.95;1.85;;;20.00;99.90;;;;;;4995527;28;20408;-78
2021/06/30 18:43:31;;;;;;;1.60;1.50;;;20.10;99.90;;;;;;4985974;28;20395;-77
2021/06/30 18:45:57;;;;;;;1.10;1.10;;;20.00;99.90;;;;;;4975460;28;20519;-78
2021/06/30 18:48:23;;;;;;;1.38;1.27;;;19.90;99.90;;;;;;4956608;28;20412;-76
2021/06/30 18:50:49;;;;;;;1.27;1.13;;;19.90;99.90;;;;;;4956552;28;20439;-78
2021/06/30 18:53:15;;;;;;;0.95;0.95;;;19.80;99.90;;;;;;4995728;28;20393;-75
2021/06/30 18:55:41;;;;;;;0.90;0.90;;;19.70;99.90;;;;;;4982967;28;20392;-78
2021/06/30 18:58:06;;;;;;;1.10;1.10;;;19.60;99.90;;;;;;4989811;28;20837;-77
2021/06/30 19:00:34;;;;;;;1.00;1.00;;;19.50;99.90;;;;;;4962548;28;21055;-77
2021/06/30 19:03:00;;;;;;;1.30;1.20;;;19.40;99.90;;;;;;4970070;28;20400;-76
2021/06/30 19:05:26;;;;;;;1.17;1.13;;;19.40;99.90;;;;;;4972894;28;20407;-79
2021/06/30 19:07:52;;;;;;;0.90;0.90;;;19.30;99.90;;;;;;4988048;28;20395;-79
2021/06/30 19:10:19;;;;;;;1.27;1.20;;;19.30;99.90;;;;;;4980245;28;20405;-78
2021/06/30 19:12:45;;;;;;;1.00;1.00;;;19.30;99.90;;;;;;4997091;28;20393;-78
2021/06/30 19:15:11;;;;;;;1.10;1.10;;;19.20;99.90;;;;;;4975036;28;20898;-79
2021/06/30 19:17:38;;;;;;;2.13;2.03;;;19.20;99.90;;;;;;4991511;28;20455;-78
2021/06/30 19:20:05;;;;;;;1.77;1.67;;;19.00;99.90;;;;;;5016124;28;20412;-78